createdAt,value
2024-04-11T00:00:55.258Z,14.14
2024-04-11T00:01:57.539Z,14.14
2024-04-11T00:02:55.258Z,14.10
2024-04-11T00:03:55.604Z,14.18
2024-04-11T00:04:55.217Z,14.17
2024-04-11T00:05:55.246Z,14.23
2024-04-11T00:06:55.210Z,14.18
2024-04-11T00:07:55.122Z,14.15
2024-04-11T00:08:55.168Z,14.18
2024-04-11T00:09:55.085Z,14.22
2024-04-11T00:10:55.077Z,14.17
2024-04-11T00:11:55.211Z,14.23
2024-04-11T00:12:55.076Z,14.26
2024-04-11T00:13:55.062Z,14.18
2024-04-11T00:14:56.771Z,14.20
2024-04-11T00:15:55.120Z,14.22
2024-04-11T00:16:55.013Z,14.28
2024-04-11T00:17:55.167Z,14.29
2024-04-11T00:18:55.064Z,14.20
2024-04-11T00:19:54.996Z,14.25
2024-04-11T00:20:55.001Z,14.25
2024-04-11T00:21:54.957Z,14.28
2024-04-11T00:22:54.943Z,14.23
2024-04-11T00:23:55.021Z,14.25
2024-04-11T00:24:54.970Z,14.25
2024-04-11T00:25:54.980Z,14.29
2024-04-11T00:26:55.118Z,14.25
2024-04-11T00:27:54.911Z,14.26
2024-04-11T00:28:54.887Z,14.23
2024-04-11T00:29:54.929Z,14.18
2024-04-11T00:30:54.972Z,14.25
2024-04-11T00:31:54.862Z,14.29
2024-04-11T00:32:54.945Z,14.30
2024-04-11T00:33:55.130Z,14.25
2024-04-11T00:34:55.027Z,14.22
2024-04-11T00:35:54.883Z,14.28
2024-04-11T00:36:54.926Z,14.29
2024-04-11T00:37:54.842Z,14.25
2024-04-11T00:38:54.902Z,14.22
2024-04-11T00:39:54.767Z,14.26
2024-04-11T00:40:54.742Z,14.18
2024-04-11T00:41:54.787Z,14.23
2024-04-11T00:42:54.747Z,14.17
2024-04-11T00:43:54.736Z,14.20
2024-04-11T00:44:54.777Z,14.29
2024-04-11T00:45:54.693Z,14.25
2024-04-11T00:46:54.680Z,14.23
2024-04-11T00:47:55.080Z,14.18
2024-04-11T00:48:54.716Z,14.26
2024-04-11T00:49:54.814Z,14.14
2024-04-11T00:50:54.699Z,14.20
2024-04-11T00:51:54.737Z,14.14
2024-04-11T00:52:54.603Z,14.20
2024-04-11T00:53:54.808Z,14.14
2024-04-11T00:54:54.673Z,14.18
2024-04-11T00:55:54.665Z,14.17
2024-04-11T00:56:54.636Z,14.17
2024-04-11T00:57:54.585Z,14.23
2024-04-11T00:58:54.555Z,14.15
2024-04-11T00:59:54.543Z,14.20
2024-04-11T01:00:54.591Z,14.23
2024-04-11T01:01:54.508Z,14.17
2024-04-11T01:02:54.548Z,14.15
2024-04-11T01:03:54.664Z,14.20
2024-04-11T01:04:54.534Z,14.17
2024-04-11T01:05:54.618Z,14.15
2024-04-11T01:06:54.472Z,14.15
2024-04-11T01:07:54.473Z,14.15
2024-04-11T01:08:54.709Z,14.04
2024-04-11T01:09:54.413Z,14.14
2024-04-11T01:10:54.472Z,14.20
2024-04-11T01:11:54.486Z,14.18
2024-04-11T01:12:54.520Z,14.11
2024-04-11T01:13:54.387Z,14.14
2024-04-11T01:14:54.449Z,14.10
2024-04-11T01:15:54.344Z,14.08
2024-04-11T01:16:54.388Z,14.07
2024-04-11T01:17:54.605Z,14.11
2024-04-11T01:18:54.563Z,14.05
2024-04-11T01:19:54.315Z,14.12
2024-04-11T01:20:54.339Z,14.07
2024-04-11T01:21:54.295Z,14.10
2024-04-11T01:22:54.270Z,14.08
2024-04-11T01:23:54.316Z,14.07
2024-04-11T01:24:54.402Z,14.05
2024-04-11T01:25:54.253Z,14.04
2024-04-11T01:26:54.250Z,14.08
2024-04-11T01:27:54.282Z,14.07
2024-04-11T01:28:54.200Z,14.05
2024-04-11T01:29:54.318Z,14.08
2024-04-11T01:30:54.262Z,14.10
2024-04-11T01:31:54.170Z,14.07
2024-04-11T01:32:54.376Z,14.05
2024-04-11T01:33:54.396Z,14.04
2024-04-11T01:34:54.205Z,14.05
2024-04-11T01:35:54.310Z,14.00
2024-04-11T01:36:54.142Z,14.00
2024-04-11T01:37:54.156Z,13.99
2024-04-11T01:38:54.153Z,14.08
2024-04-11T01:39:54.102Z,14.04
2024-04-11T01:40:54.070Z,13.96
2024-04-11T01:41:54.187Z,13.97
2024-04-11T01:42:54.067Z,13.93
2024-04-11T01:43:54.048Z,13.99
2024-04-11T01:44:54.068Z,13.96
2024-04-11T01:45:54.059Z,13.99
2024-04-11T01:46:54.089Z,13.99
2024-04-11T01:47:54.102Z,14.03
2024-04-11T01:48:54.067Z,13.92
2024-04-11T01:49:53.968Z,13.90
2024-04-11T01:50:54.015Z,13.95
2024-04-11T01:51:53.958Z,13.92
2024-04-11T01:52:53.962Z,13.95
2024-04-11T01:53:53.976Z,13.95
2024-04-11T01:54:53.940Z,13.92
2024-04-11T01:55:53.919Z,13.95
2024-04-11T01:56:54.076Z,13.90
2024-04-11T01:57:53.880Z,13.89
2024-04-11T01:58:53.895Z,13.90
2024-04-11T01:59:53.895Z,13.90
2024-04-11T02:00:53.925Z,13.89
2024-04-11T02:01:53.977Z,13.87
2024-04-11T02:02:53.908Z,13.90
2024-04-11T02:03:54.032Z,13.90
2024-04-11T02:04:53.878Z,13.92
2024-04-11T02:05:53.905Z,13.87
2024-04-11T02:06:53.872Z,13.87
2024-04-11T02:07:53.783Z,13.92
2024-04-11T02:08:53.813Z,13.86
2024-04-11T02:09:53.786Z,13.81
2024-04-11T02:10:53.738Z,13.89
2024-04-11T02:11:53.806Z,13.86
2024-04-11T02:12:53.804Z,13.90
2024-04-11T02:13:53.703Z,13.96
2024-04-11T02:14:53.776Z,13.87
2024-04-11T02:15:53.700Z,13.79
2024-04-11T02:16:53.735Z,13.92
2024-04-11T02:17:53.849Z,13.90
2024-04-11T02:18:53.874Z,13.87
2024-04-11T02:19:53.664Z,13.89
2024-04-11T02:20:53.691Z,13.86
2024-04-11T02:21:56.019Z,13.86
2024-04-11T02:22:53.627Z,13.89
2024-04-11T02:23:53.656Z,13.90
2024-04-11T02:24:53.639Z,13.83
2024-04-11T02:25:53.597Z,13.89
2024-04-11T02:26:53.609Z,13.85
2024-04-11T02:27:53.632Z,13.78
2024-04-11T02:28:53.531Z,13.74
2024-04-11T02:29:53.547Z,13.81
2024-04-11T02:30:53.595Z,13.87
2024-04-11T02:31:53.497Z,13.78
2024-04-11T02:32:53.593Z,13.77
2024-04-11T02:33:53.599Z,13.77
2024-04-11T02:34:53.618Z,13.79
2024-04-11T02:35:53.499Z,13.72
2024-04-11T02:36:53.505Z,13.75
2024-04-11T02:37:53.444Z,13.68
2024-04-11T02:38:53.470Z,13.70
2024-04-11T02:39:53.413Z,13.67
2024-04-11T02:40:53.405Z,13.68
2024-04-11T02:41:53.549Z,13.63
2024-04-11T02:42:53.390Z,13.63
2024-04-11T02:43:53.429Z,13.63
2024-04-11T02:44:53.399Z,13.67
2024-04-11T02:45:53.347Z,13.59
2024-04-11T02:46:53.491Z,13.62
2024-04-11T02:47:53.548Z,13.56
2024-04-11T02:48:53.569Z,13.60
2024-04-11T02:49:53.302Z,13.57
2024-04-11T02:50:53.382Z,13.59
2024-04-11T02:51:53.282Z,13.57
2024-04-11T02:52:53.276Z,13.57
2024-04-11T02:53:53.307Z,13.56
2024-04-11T02:54:53.325Z,13.60
2024-04-11T02:55:53.229Z,13.54
2024-04-11T02:56:53.320Z,13.53
2024-04-11T02:57:53.256Z,13.49
2024-04-11T02:58:53.214Z,13.52
2024-04-11T02:59:53.257Z,13.50
2024-04-11T03:00:53.227Z,13.50
2024-04-11T03:01:53.158Z,13.47
2024-04-11T03:02:53.296Z,13.53
2024-04-11T03:03:53.451Z,13.54
2024-04-11T03:04:53.210Z,13.49
2024-04-11T03:05:53.191Z,13.56
2024-04-11T03:06:53.185Z,13.52
2024-04-11T03:07:53.102Z,13.52
2024-04-11T03:08:53.179Z,13.52
2024-04-11T03:09:53.076Z,13.49
2024-04-11T03:10:53.058Z,13.47
2024-04-11T03:11:53.158Z,13.53
2024-04-11T03:12:53.328Z,13.42
2024-04-11T03:13:53.035Z,13.46
2024-04-11T03:14:53.035Z,13.42
2024-04-11T03:15:53.031Z,13.44
2024-04-11T03:16:53.027Z,13.42
2024-04-11T03:17:53.123Z,13.49
2024-04-11T03:18:53.076Z,13.47
2024-04-11T03:19:52.966Z,13.39
2024-04-11T03:20:53.028Z,13.44
2024-04-11T03:21:52.940Z,13.49
2024-04-11T03:22:52.932Z,13.41
2024-04-11T03:23:53.005Z,13.33
2024-04-11T03:24:53.116Z,13.30
2024-04-11T03:25:52.919Z,13.44
2024-04-11T03:26:52.962Z,13.41
2024-04-11T03:27:52.894Z,13.44
2024-04-11T03:28:52.881Z,13.31
2024-04-11T03:29:52.869Z,13.35
2024-04-11T03:30:53.285Z,13.28
2024-04-11T03:31:52.837Z,13.30
2024-04-11T03:32:52.987Z,13.35
2024-04-11T03:33:53.195Z,13.38
2024-04-11T03:34:52.800Z,13.30
2024-04-11T03:35:52.838Z,13.28
2024-04-11T03:36:52.812Z,13.35
2024-04-11T03:37:52.757Z,13.33
2024-04-11T03:38:52.779Z,13.33
2024-04-11T03:39:52.739Z,13.30
2024-04-11T03:40:55.363Z,13.25
2024-04-11T03:41:52.741Z,13.33
2024-04-11T03:42:52.747Z,13.31
2024-04-11T03:43:52.682Z,13.27
2024-04-11T03:44:52.724Z,13.28
2024-04-11T03:45:52.722Z,13.27
2024-04-11T03:46:52.722Z,13.28
2024-04-11T03:47:52.817Z,13.28
2024-04-11T03:48:52.953Z,13.25
2024-04-11T03:49:52.619Z,13.19
2024-04-11T03:50:52.632Z,13.23
2024-04-11T03:51:52.603Z,13.15
2024-04-11T03:52:52.582Z,13.13
2024-04-11T03:53:52.608Z,13.19
2024-04-11T03:54:52.601Z,13.19
2024-04-11T03:55:52.545Z,13.20
2024-04-11T03:56:52.557Z,13.23
2024-04-11T03:57:52.547Z,13.18
2024-04-11T03:58:52.518Z,13.19
2024-04-11T03:59:52.536Z,13.13
2024-04-11T04:00:52.546Z,13.19
2024-04-11T04:01:53.298Z,13.19
2024-04-11T04:02:52.558Z,13.18
2024-04-11T04:03:52.595Z,13.16
2024-04-11T04:04:52.576Z,13.19
2024-04-11T04:05:52.461Z,13.16
2024-04-11T04:06:52.489Z,13.20
2024-04-11T04:07:52.418Z,13.20
2024-04-11T04:08:52.475Z,13.20
2024-04-11T04:09:52.388Z,13.16
2024-04-11T04:10:52.460Z,13.20
2024-04-11T04:11:52.458Z,13.20
2024-04-11T04:12:52.418Z,13.18
2024-04-11T04:13:52.345Z,13.20
2024-04-11T04:14:52.399Z,13.19
2024-04-11T04:15:52.377Z,13.15
2024-04-11T04:16:52.321Z,13.28
2024-04-11T04:17:52.470Z,13.18
2024-04-11T04:18:52.582Z,13.28
2024-04-11T04:19:52.284Z,13.28
2024-04-11T04:20:52.344Z,13.33
2024-04-11T04:21:52.371Z,13.27
2024-04-11T04:22:52.248Z,13.35
2024-04-11T04:23:52.328Z,13.30
2024-04-11T04:24:52.317Z,13.28
2024-04-11T04:25:52.235Z,13.33
2024-04-11T04:26:52.233Z,13.37
2024-04-11T04:27:52.186Z,13.41
2024-04-11T04:28:52.173Z,13.35
2024-04-11T04:29:52.201Z,13.39
2024-04-11T04:30:52.175Z,13.35
2024-04-11T04:31:52.141Z,13.41
2024-04-11T04:32:52.312Z,13.47
2024-04-11T04:33:52.411Z,13.49
2024-04-11T04:34:52.191Z,13.52
2024-04-11T04:35:52.169Z,13.46
2024-04-11T04:36:52.113Z,13.52
2024-04-11T04:37:52.124Z,13.49
2024-04-11T04:38:52.312Z,13.54
2024-04-11T04:39:52.147Z,13.63
2024-04-11T04:40:52.035Z,13.63
2024-04-11T04:41:52.120Z,13.63
2024-04-11T04:42:52.087Z,13.71
2024-04-11T04:43:52.009Z,13.67
2024-04-11T04:44:52.225Z,13.79
2024-04-11T04:45:52.004Z,13.74
2024-04-11T04:46:51.971Z,13.86
2024-04-11T04:47:52.110Z,13.86
2024-04-11T04:48:52.260Z,13.86
2024-04-11T04:49:52.022Z,13.96
2024-04-11T04:50:52.045Z,13.92
2024-04-11T04:51:51.929Z,14.00
2024-04-11T04:52:51.947Z,14.08
2024-04-11T04:53:52.061Z,14.14
2024-04-11T04:54:51.977Z,14.11
2024-04-11T04:55:53.437Z,14.18
2024-04-11T04:56:52.056Z,14.28
2024-04-11T04:57:51.958Z,14.18
2024-04-11T04:58:51.877Z,14.20
2024-04-11T04:59:51.876Z,14.36
2024-04-11T05:00:51.851Z,14.35
2024-04-11T05:01:51.804Z,14.36
2024-04-11T05:02:51.901Z,14.45
2024-04-11T05:03:52.131Z,14.45
2024-04-11T05:04:51.888Z,14.47
2024-04-11T05:05:51.863Z,14.54
2024-04-11T05:06:51.803Z,14.62
2024-04-11T05:07:51.747Z,14.66
2024-04-11T05:08:51.750Z,14.72
2024-04-11T05:09:51.722Z,14.77
2024-04-11T05:10:51.713Z,14.79
2024-04-11T05:11:51.866Z,14.84
2024-04-11T05:12:51.799Z,14.91
2024-04-11T05:13:51.718Z,14.94
2024-04-11T05:14:51.721Z,14.99
2024-04-11T05:15:51.711Z,15.06
2024-04-11T05:16:51.636Z,15.14
2024-04-11T05:17:51.688Z,15.21
2024-04-11T05:18:52.071Z,15.25
2024-04-11T05:19:58.433Z,15.21
2024-04-11T05:20:51.636Z,15.36
2024-04-11T05:21:51.578Z,15.37
2024-04-11T05:22:51.580Z,15.40
2024-04-11T05:23:51.626Z,15.51
2024-04-11T05:24:51.567Z,15.51
2024-04-11T05:25:51.539Z,15.52
2024-04-11T05:27:02.965Z,15.58
2024-04-11T05:27:52.635Z,15.59
2024-04-11T05:28:51.635Z,15.57
2024-04-11T05:29:51.565Z,15.62
2024-04-11T05:30:51.740Z,15.80
2024-04-11T05:31:51.494Z,15.76
2024-04-11T05:34:17.879Z,15.76
2024-04-11T05:35:17.567Z,15.77
2024-04-11T05:36:17.654Z,15.76
2024-04-11T05:37:17.550Z,15.88
2024-04-11T05:38:17.536Z,15.88
2024-04-11T05:39:25.186Z,15.86
2024-04-11T05:44:07.968Z,15.92
2024-04-11T05:45:08.955Z,15.92
2024-04-11T05:47:30.075Z,15.94
2024-04-11T05:48:15.540Z,15.92
2024-04-11T05:49:15.628Z,16.12
2024-04-11T05:50:18.182Z,16.15
2024-04-11T05:51:15.562Z,16.21
2024-04-11T05:52:15.875Z,16.32
2024-04-11T05:53:15.595Z,16.46
2024-04-11T05:54:17.459Z,16.50
2024-04-11T05:55:15.437Z,16.54
2024-04-11T05:56:18.327Z,16.51
2024-04-11T05:57:15.442Z,16.65
2024-04-11T05:58:15.355Z,16.69
2024-04-11T05:59:15.543Z,16.69
2024-04-11T06:00:15.378Z,16.65
2024-04-11T06:01:15.475Z,16.71
2024-04-11T06:02:15.561Z,16.68
2024-04-11T06:03:18.486Z,16.72
2024-04-11T06:04:15.335Z,16.76
2024-04-11T06:05:15.294Z,16.81
2024-04-11T06:06:15.409Z,16.86
2024-04-11T06:07:15.266Z,16.75
2024-04-11T06:08:15.223Z,16.86
2024-04-11T06:09:15.267Z,16.94
2024-04-11T06:10:15.198Z,17.02
2024-04-11T06:11:15.259Z,17.02
2024-04-11T06:12:15.222Z,17.11
2024-04-11T06:13:15.218Z,17.12
2024-04-11T06:14:15.274Z,17.14
2024-04-11T06:15:15.317Z,17.20
2024-04-11T06:16:15.264Z,17.26
2024-04-11T06:17:15.157Z,17.22
2024-04-11T06:18:15.265Z,17.24
2024-04-11T06:19:15.158Z,17.29
2024-04-11T06:20:15.114Z,17.26
2024-04-11T06:21:15.260Z,17.26
2024-04-11T06:22:15.101Z,17.33
2024-04-11T06:23:15.076Z,17.27
2024-04-11T06:24:15.251Z,17.34
2024-04-11T06:25:15.083Z,17.39
2024-04-11T06:26:15.027Z,17.33
2024-04-11T06:27:15.069Z,17.33
2024-04-11T06:28:15.013Z,17.36
2024-04-11T06:29:15.043Z,17.44
2024-04-11T06:30:15.024Z,17.41
2024-04-11T06:31:14.970Z,17.36
2024-04-11T06:32:14.958Z,17.51
2024-04-11T06:33:15.087Z,17.56
2024-04-11T06:34:15.213Z,17.51
2024-04-11T06:35:14.967Z,17.60
2024-04-11T06:36:14.974Z,17.72
2024-04-11T06:37:14.906Z,17.67
2024-04-11T06:38:14.888Z,17.71
2024-04-11T06:39:15.383Z,17.76
2024-04-11T06:40:14.913Z,17.80
2024-04-11T06:41:14.891Z,17.94
2024-04-11T06:42:15.003Z,17.94
2024-04-11T06:43:14.886Z,17.94
2024-04-11T06:44:14.840Z,17.98
2024-04-11T06:45:14.953Z,18.00
2024-04-11T06:46:14.828Z,18.05
2024-04-11T06:47:23.821Z,18.08
2024-04-11T06:48:15.931Z,18.19
2024-04-11T06:49:14.853Z,18.08
2024-04-11T06:50:14.766Z,18.16
2024-04-11T06:51:15.284Z,18.18
2024-04-11T06:52:14.732Z,18.22
2024-04-11T06:53:14.824Z,18.22
2024-04-11T06:54:14.724Z,18.23
2024-04-11T06:55:14.696Z,18.25
2024-04-11T06:56:14.718Z,18.18
2024-04-11T06:57:14.748Z,18.22
2024-04-11T06:58:14.666Z,18.29
2024-04-11T06:59:15.576Z,18.19
2024-04-11T07:00:14.804Z,18.22
2024-04-11T07:02:14.631Z,18.40
2024-04-11T07:03:14.716Z,18.44
2024-04-11T07:04:14.649Z,18.37
2024-04-11T07:05:14.961Z,18.40
2024-04-11T07:06:15.203Z,18.50
2024-04-11T07:07:15.201Z,18.53
2024-04-11T07:08:14.582Z,18.47
2024-04-11T07:09:14.544Z,18.53
2024-04-11T07:10:14.531Z,18.50
2024-04-11T07:11:15.563Z,18.52
2024-04-11T07:12:14.509Z,18.52
2024-04-11T07:13:14.495Z,18.50
2024-04-11T07:14:14.484Z,18.50
2024-04-11T07:15:14.528Z,18.43
2024-04-11T07:16:14.552Z,18.44
2024-04-11T07:17:14.709Z,18.52
2024-04-11T07:18:14.496Z,18.55
2024-04-11T07:19:14.451Z,18.50
2024-04-11T07:20:17.307Z,18.45
2024-04-11T07:21:14.428Z,18.47
2024-04-11T07:22:14.517Z,18.49
2024-04-11T07:23:14.475Z,18.43
2024-04-11T07:24:15.336Z,18.56
2024-04-11T07:26:04.874Z,18.60
2024-04-11T07:27:04.144Z,18.49
2024-04-11T07:28:04.848Z,18.59
2024-04-11T07:29:04.077Z,18.60
2024-04-11T07:30:04.268Z,18.60
2024-04-11T07:31:05.346Z,18.56
2024-04-11T07:32:04.964Z,18.56
2024-04-11T07:33:05.169Z,18.66
2024-04-11T07:34:04.531Z,18.74
2024-04-11T07:35:05.315Z,18.66
2024-04-11T07:36:03.976Z,18.70
2024-04-11T07:37:04.575Z,18.86
2024-04-11T07:38:03.964Z,18.83
2024-04-11T07:39:03.958Z,18.89
2024-04-11T07:40:03.944Z,18.84
2024-04-11T07:41:03.919Z,18.92
2024-04-11T07:42:03.997Z,18.90
2024-04-11T07:43:03.939Z,18.95
2024-04-11T07:44:03.935Z,18.96
2024-04-11T07:45:04.016Z,18.99
2024-04-11T07:46:03.888Z,19.02
2024-04-11T07:47:12.383Z,19.12
2024-04-11T07:48:07.294Z,19.16
2024-04-11T07:49:04.950Z,19.15
2024-04-11T07:50:04.064Z,19.33
2024-04-11T07:51:04.018Z,19.36
2024-04-11T07:52:03.950Z,19.33
2024-04-11T07:53:03.866Z,19.41
2024-04-11T07:54:03.849Z,19.41
2024-04-11T07:55:03.835Z,19.40
2024-04-11T07:56:03.796Z,19.39
2024-04-11T07:57:03.761Z,19.41
2024-04-11T07:58:03.749Z,19.45
2024-04-11T07:59:03.817Z,19.47
2024-04-11T08:00:03.914Z,19.58
2024-04-11T08:01:03.715Z,19.54
2024-04-11T08:02:03.699Z,19.52
2024-04-11T08:03:03.742Z,19.64
2024-04-11T08:04:03.693Z,19.69
2024-04-11T08:05:03.672Z,19.69
2024-04-11T08:06:03.697Z,19.69
2024-04-11T08:07:03.759Z,19.69
2024-04-11T08:08:03.627Z,19.85
2024-04-11T08:09:03.641Z,19.84
2024-04-11T08:10:03.634Z,19.88
2024-04-11T08:11:03.614Z,19.91
2024-04-11T08:12:03.783Z,19.81
2024-04-11T08:13:03.578Z,19.73
2024-04-11T08:14:03.554Z,19.89
2024-04-11T08:15:03.631Z,19.94
2024-04-11T08:16:03.623Z,19.81
2024-04-11T08:17:03.602Z,19.92
2024-04-11T08:18:03.888Z,19.92
2024-04-11T08:19:03.507Z,19.92
2024-04-11T08:20:03.543Z,19.94
2024-04-11T08:21:03.734Z,19.89
2024-04-11T08:22:04.414Z,19.94
2024-04-11T08:23:09.007Z,20.07
2024-04-11T08:24:04.590Z,20.09
2024-04-11T08:25:03.437Z,20.07
2024-04-11T08:26:05.974Z,20.11
2024-04-11T08:27:03.413Z,20.14
2024-04-11T08:28:03.424Z,20.13
2024-04-11T08:29:03.383Z,20.06
2024-04-11T08:30:03.601Z,20.14
2024-04-11T08:31:03.576Z,20.25
2024-04-11T08:32:03.352Z,20.22
2024-04-11T08:33:03.449Z,20.32
2024-04-11T08:34:03.440Z,20.24
2024-04-11T08:35:04.320Z,20.26
2024-04-11T08:36:03.388Z,20.37
2024-04-11T08:37:03.317Z,20.31
2024-04-11T08:38:03.276Z,20.32
2024-04-11T08:39:03.272Z,20.36
2024-04-11T08:40:03.267Z,20.47
2024-04-11T08:41:03.248Z,20.47
2024-04-11T08:42:03.318Z,20.44
2024-04-11T08:43:03.225Z,20.48
2024-04-11T08:44:03.241Z,20.40
2024-04-11T08:45:03.265Z,20.50
2024-04-11T08:46:03.219Z,20.51
2024-04-11T08:47:03.211Z,20.39
2024-04-11T08:48:03.408Z,20.48
2024-04-11T08:49:03.250Z,20.50
2024-04-11T08:50:03.287Z,20.47
2024-04-11T08:51:03.390Z,20.43
2024-04-11T08:52:03.197Z,20.48
2024-04-11T08:53:03.244Z,20.44
2024-04-11T08:54:04.676Z,20.48
2024-04-11T08:55:03.241Z,20.50
2024-04-11T08:56:03.098Z,20.51
2024-04-11T08:57:03.135Z,20.50
2024-04-11T08:58:03.053Z,20.52
2024-04-11T08:59:03.071Z,20.51
2024-04-11T09:00:03.137Z,20.59
2024-04-11T09:01:03.075Z,20.50
2024-04-11T09:02:03.022Z,20.62
2024-04-11T09:03:03.186Z,20.62
2024-04-11T09:04:03.073Z,20.58
2024-04-11T09:05:10.262Z,20.70
2024-04-11T09:06:04.009Z,20.72
2024-04-11T09:07:02.977Z,20.67
2024-04-11T09:08:03.035Z,20.77
2024-04-11T09:09:03.017Z,20.75
2024-04-11T09:10:02.976Z,20.80
2024-04-11T09:11:02.968Z,20.81
2024-04-11T09:12:02.998Z,20.85
2024-04-11T09:13:02.905Z,20.87
2024-04-11T09:14:02.887Z,20.82
2024-04-11T09:15:02.932Z,20.90
2024-04-11T09:16:02.890Z,20.78
2024-04-11T09:17:03.028Z,21.00
2024-04-11T09:18:02.938Z,21.00
2024-04-11T09:19:02.821Z,21.03
2024-04-11T09:20:02.812Z,21.12
2024-04-11T09:21:02.890Z,21.17
2024-04-11T09:22:02.809Z,21.15
2024-04-11T09:23:02.796Z,21.21
2024-04-11T09:24:02.881Z,21.22
2024-04-11T09:25:02.775Z,21.22
2024-04-11T09:26:02.769Z,21.25
2024-04-11T09:27:02.820Z,21.21
2024-04-11T09:28:02.831Z,21.27
2024-04-11T09:29:02.728Z,21.25
2024-04-11T09:30:02.931Z,21.25
2024-04-11T09:31:02.698Z,21.20
2024-04-11T09:32:02.717Z,21.21
2024-04-11T09:33:02.951Z,21.21
2024-04-11T09:34:02.845Z,21.18
2024-04-11T09:35:02.663Z,21.17
2024-04-11T09:36:02.692Z,21.22
2024-04-11T09:37:02.630Z,21.24
2024-04-11T09:38:02.716Z,21.17
2024-04-11T09:39:02.633Z,21.24
2024-04-11T09:40:02.615Z,21.24
2024-04-11T09:41:02.622Z,21.27
2024-04-11T09:42:02.631Z,21.30
2024-04-11T09:43:02.566Z,21.32
2024-04-11T09:44:02.545Z,21.35
2024-04-11T09:45:02.605Z,21.42
2024-04-11T09:46:02.530Z,21.36
2024-04-11T09:47:02.562Z,21.46
2024-04-11T09:48:02.724Z,21.35
2024-04-11T09:49:02.547Z,21.40
2024-04-11T09:50:02.627Z,21.50
2024-04-11T09:51:02.616Z,21.42
2024-04-11T09:52:02.457Z,21.43
2024-04-11T09:53:02.448Z,21.55
2024-04-11T09:54:02.534Z,21.57
2024-04-11T09:55:02.445Z,21.60
2024-04-11T09:56:02.411Z,21.54
2024-04-11T09:57:02.437Z,21.66
2024-04-11T09:58:02.397Z,21.66
2024-04-11T09:59:02.380Z,21.54
2024-04-11T10:00:02.606Z,21.67
2024-04-11T10:01:02.368Z,21.70
2024-04-11T10:02:02.344Z,21.73
2024-04-11T10:03:02.437Z,21.66
2024-04-11T10:04:02.553Z,21.75
2024-04-11T10:05:02.347Z,21.83
2024-04-11T10:06:05.257Z,21.80
2024-04-11T10:07:02.349Z,21.73
2024-04-11T10:08:02.281Z,21.75
2024-04-11T10:09:02.405Z,21.73
2024-04-11T10:10:02.263Z,21.80
2024-04-11T10:11:02.319Z,21.80
2024-04-11T10:12:05.453Z,21.82
2024-04-11T10:13:02.225Z,21.79
2024-04-11T10:14:02.212Z,21.80
2024-04-11T10:15:02.380Z,21.77
2024-04-11T10:16:02.193Z,21.83
2024-04-11T10:17:02.222Z,21.91
2024-04-11T10:18:02.994Z,21.80
2024-04-11T10:19:02.768Z,21.80
2024-04-11T10:20:02.251Z,21.75
2024-04-11T10:21:02.366Z,21.83
2024-04-11T10:22:02.120Z,21.72
2024-04-11T10:23:02.106Z,21.76
2024-04-11T10:24:03.952Z,21.75
2024-04-11T10:25:02.089Z,21.73
2024-04-11T10:26:02.076Z,21.80
2024-04-11T10:27:02.134Z,21.83
2024-04-11T10:28:02.055Z,21.76
2024-04-11T10:29:02.040Z,21.80
2024-04-11T10:30:04.825Z,21.83
2024-04-11T10:31:02.040Z,21.82
2024-04-11T10:32:02.032Z,21.80
2024-04-11T10:33:02.072Z,21.80
2024-04-11T10:34:02.214Z,21.89
2024-04-11T10:35:01.980Z,21.80
2024-04-11T10:36:03.668Z,21.77
2024-04-11T10:37:02.090Z,21.73
2024-04-11T10:38:01.938Z,21.77
2024-04-11T10:39:02.127Z,21.76
2024-04-11T10:40:02.002Z,21.80
2024-04-11T10:41:01.925Z,21.77
2024-04-11T10:42:02.084Z,21.77
2024-04-11T10:43:07.806Z,21.79
2024-04-11T10:44:02.883Z,21.75
2024-04-11T10:45:01.877Z,21.76
2024-04-11T10:46:01.876Z,21.73
2024-04-11T10:47:01.842Z,21.85
2024-04-11T10:48:04.646Z,21.77
2024-04-11T10:49:01.824Z,21.76
2024-04-11T10:50:01.836Z,21.85
2024-04-11T10:51:01.967Z,21.77
2024-04-11T10:52:01.778Z,21.93
2024-04-11T10:53:01.778Z,21.98
2024-04-11T10:54:01.802Z,21.99
2024-04-11T10:55:01.773Z,22.02
2024-04-11T10:56:01.777Z,21.99
2024-04-11T10:57:01.826Z,22.00
2024-04-11T10:58:01.730Z,22.06
2024-04-11T10:59:01.724Z,22.07
2024-04-11T11:00:01.802Z,22.08
2024-04-11T11:01:02.305Z,22.08
2024-04-11T11:02:06.164Z,22.25
2024-04-11T11:03:02.839Z,22.30
2024-04-11T11:04:01.703Z,22.22
2024-04-11T11:05:01.640Z,22.33
2024-04-11T11:06:02.428Z,22.35
2024-04-11T11:07:01.719Z,22.33
2024-04-11T11:08:01.603Z,22.43
2024-04-11T11:09:01.712Z,22.43
2024-04-11T11:10:01.631Z,22.43
2024-04-11T11:11:01.587Z,22.51
2024-04-11T11:12:02.006Z,22.50
2024-04-11T11:13:01.599Z,22.53
2024-04-11T11:14:01.820Z,22.54
2024-04-11T11:15:01.771Z,22.66
2024-04-11T11:16:01.607Z,22.62
2024-04-11T11:17:01.510Z,22.66
2024-04-11T11:18:01.732Z,22.68
2024-04-11T11:19:01.504Z,22.69
2024-04-11T11:20:01.535Z,22.75
2024-04-11T11:21:01.632Z,22.76
2024-04-11T11:22:01.552Z,22.75
2024-04-11T11:23:01.461Z,22.78
2024-04-11T11:24:01.804Z,22.88
2024-04-11T11:25:01.414Z,22.91
2024-04-11T11:26:01.405Z,22.84
2024-04-11T11:27:01.748Z,22.98
2024-04-11T11:28:01.388Z,23.03
2024-04-11T11:29:01.371Z,23.10
2024-04-11T11:30:02.166Z,23.15
2024-04-11T11:31:01.419Z,23.15
2024-04-11T11:32:01.370Z,23.17
2024-04-11T11:33:01.499Z,23.20
2024-04-11T11:34:01.544Z,23.13
2024-04-11T11:35:01.312Z,23.15
2024-04-11T11:36:01.409Z,23.17
2024-04-11T11:37:01.903Z,23.24
2024-04-11T11:38:01.275Z,23.18
2024-04-11T11:39:01.365Z,23.21
2024-04-11T11:40:01.273Z,23.17
2024-04-11T11:41:01.291Z,23.25
2024-04-11T11:42:01.437Z,23.25
2024-04-11T11:43:01.220Z,23.36
2024-04-11T11:44:01.202Z,23.21
2024-04-11T11:45:02.051Z,23.25
2024-04-11T11:46:01.180Z,23.24
2024-04-11T11:47:01.247Z,23.28
2024-04-11T11:48:01.339Z,23.24
2024-04-11T11:49:01.244Z,23.31
2024-04-11T11:50:01.282Z,23.28
2024-04-11T11:51:01.199Z,23.20
2024-04-11T11:52:01.119Z,23.24
2024-04-11T11:53:01.123Z,23.17
2024-04-11T11:54:01.251Z,23.18
2024-04-11T11:55:01.135Z,23.20
2024-04-11T11:57:01.207Z,23.18
2024-04-11T11:58:03.077Z,23.23
2024-04-11T11:59:01.034Z,23.24
2024-04-11T12:00:01.111Z,23.21
2024-04-11T12:01:01.082Z,23.20
2024-04-11T12:02:01.020Z,23.17
2024-04-11T12:03:01.276Z,23.18
2024-04-11T12:04:01.157Z,23.13
2024-04-11T12:05:00.995Z,23.20
2024-04-11T12:06:02.641Z,23.18
2024-04-11T12:07:00.946Z,23.24
2024-04-11T12:08:00.944Z,23.20
2024-04-11T12:09:00.999Z,23.24
2024-04-11T12:10:00.923Z,23.20
2024-04-11T12:11:00.986Z,23.31
2024-04-11T12:12:00.995Z,23.28
2024-04-11T12:13:00.894Z,23.32
2024-04-11T12:14:00.869Z,23.36
2024-04-11T12:15:00.922Z,23.36
2024-04-11T12:16:00.932Z,23.31
2024-04-11T12:17:00.851Z,23.32
2024-04-11T12:18:01.029Z,23.40
2024-04-11T12:19:00.835Z,23.31
2024-04-11T12:20:00.820Z,23.40
2024-04-11T12:21:00.856Z,23.36
2024-04-11T12:22:09.113Z,23.44
2024-04-11T12:23:00.769Z,23.36
2024-04-11T12:24:01.035Z,23.34
2024-04-11T12:25:00.759Z,23.24
2024-04-11T12:26:00.734Z,23.34
2024-04-11T12:27:00.828Z,23.32
2024-04-11T12:28:00.722Z,23.32
2024-04-11T12:29:00.711Z,23.31
2024-04-11T12:30:01.017Z,23.34
2024-04-11T12:31:06.968Z,23.31
2024-04-11T12:32:01.680Z,23.31
2024-04-11T12:33:00.764Z,23.32
2024-04-11T12:34:00.882Z,23.36
2024-04-11T12:35:00.718Z,23.36
2024-04-11T12:36:00.974Z,23.48
2024-04-11T12:37:00.614Z,23.54
2024-04-11T12:38:00.612Z,23.46
2024-04-11T12:39:00.688Z,23.47
2024-04-11T12:40:00.670Z,23.50
2024-04-11T12:41:00.592Z,23.65
2024-04-11T12:42:00.704Z,23.58
2024-04-11T12:43:00.588Z,23.58
2024-04-11T12:44:00.535Z,23.69
2024-04-11T12:45:00.580Z,23.62
2024-04-11T12:46:00.514Z,23.59
2024-04-11T12:47:00.530Z,23.62
2024-04-11T12:48:00.606Z,23.66
2024-04-11T12:49:00.618Z,23.66
2024-04-11T12:50:00.479Z,23.51
2024-04-11T12:51:00.772Z,23.56
2024-04-11T12:52:00.475Z,23.55
2024-04-11T12:53:00.437Z,23.41
2024-04-11T12:54:00.573Z,23.48
2024-04-11T12:55:01.384Z,23.54
2024-04-11T12:56:00.449Z,23.43
2024-04-11T12:57:00.444Z,23.36
2024-04-11T12:58:00.378Z,23.46
2024-04-11T12:59:00.407Z,23.46
2024-04-11T13:00:00.592Z,23.36
2024-04-11T13:01:00.381Z,23.43
2024-04-11T13:02:00.365Z,23.48